createdAt,value
2019-03-16T15:44:40.144Z,3.57
2019-03-16T15:47:11.931Z,3.50
2019-03-16T15:49:43.718Z,3.70
2019-03-16T15:52:15.466Z,4.43
2019-03-16T15:54:47.226Z,4.80
2019-03-16T15:57:18.974Z,4.60
2019-03-16T15:59:50.752Z,4.10
2019-03-16T16:02:22.830Z,4.53
2019-03-16T16:04:54.768Z,4.93
2019-03-16T16:07:26.620Z,4.87
2019-03-16T16:09:58.394Z,5.33
2019-03-16T16:12:30.233Z,5.93
2019-03-16T16:15:02.204Z,6.40
2019-03-16T16:17:34.089Z,6.67
2019-03-16T16:20:06.550Z,6.47
2019-03-16T16:22:38.373Z,6.70
2019-03-16T16:25:10.412Z,7.30
2019-03-16T16:27:42.372Z,7.40
2019-03-16T16:30:14.323Z,8.13
2019-03-16T16:32:46.066Z,7.40
2019-03-16T16:35:17.960Z,9.07
2019-03-16T16:37:49.843Z,7.80
2019-03-16T16:40:21.716Z,8.60
2019-03-16T16:42:53.603Z,8.50
2019-03-16T16:45:25.408Z,7.87
2019-03-16T16:47:57.227Z,7.70
2019-03-16T16:50:29.063Z,8.93
2019-03-16T16:53:00.950Z,9.73
2019-03-16T16:55:32.919Z,10.73
2019-03-16T16:58:04.933Z,11.47
2019-03-16T17:00:36.949Z,13.03
2019-03-16T17:03:08.727Z,14.00
2019-03-16T17:05:43.188Z,15.00
2019-03-16T17:08:14.722Z,13.77
2019-03-16T17:10:47.932Z,12.57
2019-03-16T17:13:20.214Z,16.17
2019-03-16T17:15:52.333Z,17.53
2019-03-16T17:18:24.204Z,15.83
2019-03-16T17:20:55.959Z,16.10
2019-03-16T17:23:27.833Z,16.67
2019-03-16T17:25:59.662Z,16.37
2019-03-16T17:28:31.957Z,17.03
2019-03-16T17:31:07.623Z,17.50
2019-03-16T17:33:39.862Z,18.20
2019-03-16T17:36:11.700Z,18.47
2019-03-16T17:38:43.553Z,16.13
2019-03-16T17:41:15.411Z,18.33
2019-03-16T17:43:47.270Z,18.60
2019-03-16T17:46:19.038Z,19.90
2019-03-16T17:48:50.881Z,19.57
2019-03-16T17:51:22.748Z,19.37
2019-03-16T17:53:54.616Z,19.83
2019-03-16T17:56:26.442Z,20.17
2019-03-16T17:58:58.203Z,19.53
2019-03-16T18:01:30.040Z,22.57
2019-03-16T18:04:02.033Z,22.47
2019-03-16T18:06:33.771Z,21.27
2019-03-16T18:09:06.712Z,20.70
2019-03-16T18:11:38.561Z,21.23
2019-03-16T18:14:10.329Z,20.67
2019-03-16T18:16:46.522Z,18.90
2019-03-16T18:19:18.274Z,19.30
2019-03-16T18:21:50.144Z,19.53
2019-03-16T18:24:21.889Z,19.97
2019-03-16T18:26:53.839Z,18.83
2019-03-16T18:29:26.201Z,20.07
2019-03-16T18:32:07.275Z,19.97
2019-03-16T18:34:33.545Z,19.13
2019-03-16T18:37:05.615Z,20.20
2019-03-16T18:39:37.687Z,15.40
2019-03-16T18:42:10.468Z,17.73
2019-03-16T18:44:42.925Z,16.53
2019-03-16T18:47:14.739Z,17.13
2019-03-16T18:49:46.607Z,15.57
2019-03-16T18:52:18.519Z,13.60
2019-03-16T18:54:50.297Z,13.43
2019-03-16T18:57:22.057Z,14.13
2019-03-16T18:59:53.828Z,13.73
2019-03-16T19:02:25.664Z,13.87
2019-03-16T19:04:57.632Z,14.13
2019-03-16T19:07:29.506Z,14.30
2019-03-16T19:10:01.270Z,12.37
2019-03-16T19:12:33.346Z,12.47
2019-03-16T19:15:06.964Z,12.33
2019-03-16T19:17:38.907Z,11.43
2019-03-16T19:20:11.424Z,11.60
2019-03-16T19:22:43.389Z,10.17
2019-03-16T19:25:15.605Z,11.73
2019-03-16T19:27:47.838Z,11.10
2019-03-16T19:30:19.856Z,12.23
2019-03-16T19:32:51.820Z,11.43
2019-03-16T19:35:23.854Z,11.77
2019-03-16T19:37:55.625Z,11.83
2019-03-16T19:40:27.577Z,12.23
2019-03-16T19:43:01.230Z,12.20
2019-03-16T19:45:33.206Z,12.53
2019-03-16T19:48:04.945Z,11.57
2019-03-16T19:50:36.749Z,11.80
2019-03-16T19:53:08.608Z,12.90
2019-03-16T19:55:40.453Z,11.00
2019-03-16T19:58:12.442Z,11.33
2019-03-16T20:00:44.603Z,12.10
2019-03-16T20:03:16.789Z,11.03
2019-03-16T20:05:50.325Z,9.83
2019-03-16T20:08:22.430Z,11.20
2019-03-16T20:11:05.939Z,10.77
2019-03-16T20:13:29.074Z,11.43
2019-03-16T20:16:01.546Z,11.40
2019-03-16T20:21:13.920Z,10.27
2019-03-16T20:23:45.834Z,10.47
2019-03-16T20:26:18.011Z,10.77
2019-03-16T20:48:53.875Z,8.90
2019-03-16T20:51:25.668Z,7.33
2019-03-16T20:53:57.672Z,6.60
2019-03-16T20:56:29.534Z,7.30
2019-03-16T20:59:01.309Z,5.90
2019-03-16T21:01:33.278Z,6.83
2019-03-16T21:04:05.490Z,5.70
2019-03-16T21:06:37.465Z,6.70
2019-03-16T21:09:09.328Z,5.97
2019-03-16T21:11:41.349Z,5.13
2019-03-16T21:14:13.075Z,4.97
2019-03-16T21:16:44.956Z,4.13
2019-03-16T21:19:16.792Z,3.83
2019-03-16T21:21:48.781Z,4.97
2019-03-16T21:24:20.537Z,5.37
2019-03-16T21:26:53.051Z,4.60
2019-03-16T21:29:26.418Z,5.43
2019-03-16T21:31:58.537Z,4.10
2019-03-16T21:34:33.220Z,5.17
2019-03-16T21:37:04.388Z,3.20
2019-03-16T21:39:36.378Z,2.93
2019-03-16T21:42:08.513Z,2.87
2019-03-16T21:44:40.748Z,2.53
2019-03-16T21:47:12.926Z,2.37
2019-03-16T21:49:44.933Z,8.03
2019-03-16T21:52:17.051Z,2.60
2019-03-16T21:54:51.835Z,2.60
2019-03-16T21:57:23.962Z,2.53
2019-03-16T21:59:56.021Z,2.17
2019-03-16T22:02:27.860Z,2.00
2019-03-16T22:04:59.733Z,2.43
2019-03-16T22:07:31.489Z,2.90
2019-03-16T22:10:04.237Z,2.40
2019-03-16T22:12:36.217Z,2.40
2019-03-16T22:15:08.603Z,3.57
2019-03-16T22:17:41.009Z,2.30
2019-03-16T22:20:13.166Z,2.43
2019-03-16T22:22:45.285Z,2.47
2019-03-16T22:25:17.492Z,2.43
2019-03-16T22:27:51.588Z,2.27
2019-03-16T22:30:22.987Z,3.10
2019-03-16T22:32:56.802Z,3.10
2019-03-16T22:35:28.612Z,2.80
2019-03-16T22:38:00.738Z,2.90
2019-03-16T22:40:32.834Z,2.90
2019-03-16T22:43:05.061Z,3.27
2019-03-16T22:45:37.127Z,3.00
2019-03-16T22:48:09.072Z,2.87
2019-03-16T22:50:40.943Z,3.13
2019-03-16T22:53:12.882Z,2.57
2019-03-16T22:55:44.740Z,2.70
2019-03-16T22:58:16.501Z,2.80
2019-03-16T23:00:49.850Z,2.80
2019-03-16T23:03:21.824Z,2.80
2019-03-16T23:05:53.744Z,3.30
2019-03-16T23:08:25.496Z,2.97
2019-03-16T23:10:57.315Z,3.13
2019-03-16T23:13:29.184Z,2.83
2019-03-16T23:16:01.041Z,2.97
2019-03-16T23:18:32.968Z,2.63
2019-03-16T23:21:04.795Z,2.80
2019-03-16T23:23:36.560Z,3.00
2019-03-16T23:26:08.318Z,2.80
2019-03-16T23:28:40.193Z,2.57
2019-03-16T23:31:12.586Z,3.40
2019-03-16T23:33:44.683Z,3.50
2019-03-16T23:36:16.860Z,3.10
2019-03-16T23:38:48.861Z,2.57
2019-03-16T23:41:20.712Z,3.77
2019-03-16T23:43:52.566Z,3.90
2019-03-16T23:46:24.441Z,3.27
2019-03-16T23:48:56.412Z,3.43
2019-03-16T23:51:28.347Z,3.83
2019-03-16T23:54:00.316Z,3.20
2019-03-16T23:56:32.071Z,3.47
2019-03-16T23:59:03.866Z,3.13
